sensor_id;sensor_type;location;lat;lon;timestamp;temperature;humidity
24860;DHT22;12936;52.006;4.350;2023-03-09T00:00:39;3.10;99.90
24860;DHT22;12936;52.006;4.350;2023-03-09T00:03:08;3.10;99.90
24860;DHT22;12936;52.006;4.350;2023-03-09T00:05:52;3.10;99.90
24860;DHT22;12936;52.006;4.350;2023-03-09T00:08:23;3.10;99.90
24860;DHT22;12936;52.006;4.350;2023-03-09T00:11:14;3.10;99.90
24860;DHT22;12936;52.006;4.350;2023-03-09T00:13:43;3.10;99.90
24860;DHT22;12936;52.006;4.350;2023-03-09T00:16:17;3.10;99.90
24860;DHT22;12936;52.006;4.350;2023-03-09T00:18:51;3.10;99.90
24860;DHT22;12936;52.006;4.350;2023-03-09T00:21:25;3.20;99.90
24860;DHT22;12936;52.006;4.350;2023-03-09T00:24:06;3.20;99.90
24860;DHT22;12936;52.006;4.350;2023-03-09T00:26:59;3.20;99.90
24860;DHT22;12936;52.006;4.350;2023-03-09T00:29:41;3.20;99.90
24860;DHT22;12936;52.006;4.350;2023-03-09T00:32:33;3.20;99.90
24860;DHT22;12936;52.006;4.350;2023-03-09T00:35:08;3.20;99.90
24860;DHT22;12936;52.006;4.350;2023-03-09T00:37:46;3.20;99.90
24860;DHT22;12936;52.006;4.350;2023-03-09T00:40:15;3.20;99.90
24860;DHT22;12936;52.006;4.350;2023-03-09T00:42:50;3.20;99.90
24860;DHT22;12936;52.006;4.350;2023-03-09T00:45:18;3.20;99.90
24860;DHT22;12936;52.006;4.350;2023-03-09T00:47:56;3.20;99.90
24860;DHT22;12936;52.006;4.350;2023-03-09T00:50:25;3.20;99.90
24860;DHT22;12936;52.006;4.350;2023-03-09T00:53:16;3.20;99.90
24860;DHT22;12936;52.006;4.350;2023-03-09T00:55:44;3.10;99.90
24860;DHT22;12936;52.006;4.350;2023-03-09T00:58:13;3.20;99.90
24860;DHT22;12936;52.006;4.350;2023-03-09T01:00:43;3.20;99.90
24860;DHT22;12936;52.006;4.350;2023-03-09T01:03:11;3.10;99.90
24860;DHT22;12936;52.006;4.350;2023-03-09T01:05:48;3.00;99.90
24860;DHT22;12936;52.006;4.350;2023-03-09T01:08:18;3.10;99.90
24860;DHT22;12936;52.006;4.350;2023-03-09T01:10:47;3.10;99.90
24860;DHT22;12936;52.006;4.350;2023-03-09T01:13:19;3.10;99.90
24860;DHT22;12936;52.006;4.350;2023-03-09T01:15:50;3.20;99.90
24860;DHT22;12936;52.006;4.350;2023-03-09T01:18:19;3.20;99.90
24860;DHT22;12936;52.006;4.350;2023-03-09T01:20:47;3.10;99.90
24860;DHT22;12936;52.006;4.350;2023-03-09T01:23:20;3.20;99.90
24860;DHT22;12936;52.006;4.350;2023-03-09T01:25:49;3.20;99.90
24860;DHT22;12936;52.006;4.350;2023-03-09T01:28:23;3.20;99.90
24860;DHT22;12936;52.006;4.350;2023-03-09T01:30:52;3.20;99.90
24860;DHT22;12936;52.006;4.350;2023-03-09T01:33:21;3.20;99.90
24860;DHT22;12936;52.006;4.350;2023-03-09T01:35:49;3.20;99.90
24860;DHT22;12936;52.006;4.350;2023-03-09T01:38:19;3.30;99.90
24860;DHT22;12936;52.006;4.350;2023-03-09T01:40:49;3.30;99.90
24860;DHT22;12936;52.006;4.350;2023-03-09T01:43:33;3.30;99.90
24860;DHT22;12936;52.006;4.350;2023-03-09T01:46:35;3.20;99.90
24860;DHT22;12936;52.006;4.350;2023-03-09T01:49:30;3.20;99.90
24860;DHT22;12936;52.006;4.350;2023-03-09T01:52:05;3.30;99.90
24860;DHT22;12936;52.006;4.350;2023-03-09T01:54:48;3.20;99.90
24860;DHT22;12936;52.006;4.350;2023-03-09T01:57:26;3.20;99.90
24860;DHT22;12936;52.006;4.350;2023-03-09T02:00:03;3.20;99.90
24860;DHT22;12936;52.006;4.350;2023-03-09T02:02:39;3.10;99.90
24860;DHT22;12936;52.006;4.350;2023-03-09T02:05:21;3.10;99.90
24860;DHT22;12936;52.006;4.350;2023-03-09T02:07:55;3.10;99.90
24860;DHT22;12936;52.006;4.350;2023-03-09T02:10:32;3.20;99.90
24860;DHT22;12936;52.006;4.350;2023-03-09T02:13:09;3.20;99.90
24860;DHT22;12936;52.006;4.350;2023-03-09T02:15:45;3.10;99.90
24860;DHT22;12936;52.006;4.350;2023-03-09T02:18:23;3.10;99.90
24860;DHT22;12936;52.006;4.350;2023-03-09T02:21:05;3.20;99.90
24860;DHT22;12936;52.006;4.350;2023-03-09T02:23:41;3.10;99.90
24860;DHT22;12936;52.006;4.350;2023-03-09T02:26:21;3.20;99.90
24860;DHT22;12936;52.006;4.350;2023-03-09T02:28:57;3.20;99.90
24860;DHT22;12936;52.006;4.350;2023-03-09T02:31:28;3.10;99.90
24860;DHT22;12936;52.006;4.350;2023-03-09T02:33:58;3.20;99.90
24860;DHT22;12936;52.006;4.350;2023-03-09T02:36:29;3.20;99.90
24860;DHT22;12936;52.006;4.350;2023-03-09T02:39:04;3.20;99.90
24860;DHT22;12936;52.006;4.350;2023-03-09T02:41:37;3.20;99.90
24860;DHT22;12936;52.006;4.350;2023-03-09T02:44:09;3.20;99.90
24860;DHT22;12936;52.006;4.350;2023-03-09T02:46:42;3.20;99.90
24860;DHT22;12936;52.006;4.350;2023-03-09T02:49:11;3.20;99.90
24860;DHT22;12936;52.006;4.350;2023-03-09T02:51:43;3.20;99.90
24860;DHT22;12936;52.006;4.350;2023-03-09T02:54:15;3.10;99.90
24860;DHT22;12936;52.006;4.350;2023-03-09T02:56:49;3.20;99.90
24860;DHT22;12936;52.006;4.350;2023-03-09T02:59:40;3.20;99.90
24860;DHT22;12936;52.006;4.350;2023-03-09T03:02:11;3.20;99.90
24860;DHT22;12936;52.006;4.350;2023-03-09T03:04:45;3.20;99.90
24860;DHT22;12936;52.006;4.350;2023-03-09T03:07:16;3.20;99.90
24860;DHT22;12936;52.006;4.350;2023-03-09T03:09:45;3.20;99.90
24860;DHT22;12936;52.006;4.350;2023-03-09T03:12:13;3.20;99.90
24860;DHT22;12936;52.006;4.350;2023-03-09T03:14:49;3.20;99.90
24860;DHT22;12936;52.006;4.350;2023-03-09T03:17:19;3.20;99.90
24860;DHT22;12936;52.006;4.350;2023-03-09T03:19:49;3.20;99.90
24860;DHT22;12936;52.006;4.350;2023-03-09T03:22:21;3.20;99.90
24860;DHT22;12936;52.006;4.350;2023-03-09T03:24:52;3.20;99.90
24860;DHT22;12936;52.006;4.350;2023-03-09T03:27:23;3.20;99.90
24860;DHT22;12936;52.006;4.350;2023-03-09T03:29:57;3.20;99.90
24860;DHT22;12936;52.006;4.350;2023-03-09T03:32:29;3.20;99.90
24860;DHT22;12936;52.006;4.350;2023-03-09T03:35:21;3.20;99.90
24860;DHT22;12936;52.006;4.350;2023-03-09T03:40:36;3.20;99.90
24860;DHT22;12936;52.006;4.350;2023-03-09T03:43:05;3.30;99.90
24860;DHT22;12936;52.006;4.350;2023-03-09T03:45:42;3.20;99.90
24860;DHT22;12936;52.006;4.350;2023-03-09T03:48:19;3.30;99.90
24860;DHT22;12936;52.006;4.350;2023-03-09T03:50:56;3.40;99.90
24860;DHT22;12936;52.006;4.350;2023-03-09T03:58:48;3.30;99.90
24860;DHT22;12936;52.006;4.350;2023-03-09T04:01:26;3.30;99.90
24860;DHT22;12936;52.006;4.350;2023-03-09T04:04:19;3.30;99.90
24860;DHT22;12936;52.006;4.350;2023-03-09T04:06:48;3.30;99.90
24860;DHT22;12936;52.006;4.350;2023-03-09T04:09:24;3.20;99.90
24860;DHT22;12936;52.006;4.350;2023-03-09T04:11:57;3.20;99.90
24860;DHT22;12936;52.006;4.350;2023-03-09T04:14:30;3.30;99.90
24860;DHT22;12936;52.006;4.350;2023-03-09T04:17:09;3.30;99.90
24860;DHT22;12936;52.006;4.350;2023-03-09T04:19:59;3.20;99.90
24860;DHT22;12936;52.006;4.350;2023-03-09T04:23:04;3.30;99.90
24860;DHT22;12936;52.006;4.350;2023-03-09T04:26:00;3.20;99.90
24860;DHT22;12936;52.006;4.350;2023-03-09T04:28:46;3.30;99.90
24860;DHT22;12936;52.006;4.350;2023-03-09T04:31:24;3.30;99.90
24860;DHT22;12936;52.006;4.350;2023-03-09T04:34:04;3.30;99.90
24860;DHT22;12936;52.006;4.350;2023-03-09T04:36:34;3.30;99.90
24860;DHT22;12936;52.006;4.350;2023-03-09T04:39:09;3.30;99.90
24860;DHT22;12936;52.006;4.350;2023-03-09T04:41:38;3.30;99.90
24860;DHT22;12936;52.006;4.350;2023-03-09T04:44:08;3.30;99.90
24860;DHT22;12936;52.006;4.350;2023-03-09T04:46:40;3.30;99.90
24860;DHT22;12936;52.006;4.350;2023-03-09T04:49:14;3.30;99.90
24860;DHT22;12936;52.006;4.350;2023-03-09T04:51:57;3.30;99.90
24860;DHT22;12936;52.006;4.350;2023-03-09T04:54:28;3.40;99.90
24860;DHT22;12936;52.006;4.350;2023-03-09T04:57:02;3.30;99.90
24860;DHT22;12936;52.006;4.350;2023-03-09T04:59:37;3.30;99.90
24860;DHT22;12936;52.006;4.350;2023-03-09T05:02:28;3.30;99.90
24860;DHT22;12936;52.006;4.350;2023-03-09T05:05:21;3.30;99.90
24860;DHT22;12936;52.006;4.350;2023-03-09T05:07:50;3.30;99.90
24860;DHT22;12936;52.006;4.350;2023-03-09T05:10:23;3.30;99.90
24860;DHT22;12936;52.006;4.350;2023-03-09T05:12:52;3.30;99.90
24860;DHT22;12936;52.006;4.350;2023-03-09T05:15:22;3.30;99.90
24860;DHT22;12936;52.006;4.350;2023-03-09T05:17:51;3.30;99.90
24860;DHT22;12936;52.006;4.350;2023-03-09T05:20:23;3.30;99.90
24860;DHT22;12936;52.006;4.350;2023-03-09T05:23:17;3.40;99.90
24860;DHT22;12936;52.006;4.350;2023-03-09T05:26:01;3.40;99.90
24860;DHT22;12936;52.006;4.350;2023-03-09T05:28:53;3.40;99.90
24860;DHT22;12936;52.006;4.350;2023-03-09T05:31:24;3.40;99.90
24860;DHT22;12936;52.006;4.350;2023-03-09T05:34:12;3.40;99.90
24860;DHT22;12936;52.006;4.350;2023-03-09T05:36:47;3.40;99.90
24860;DHT22;12936;52.006;4.350;2023-03-09T05:39:22;3.40;99.90
24860;DHT22;12936;52.006;4.350;2023-03-09T05:42:29;3.40;99.90
24860;DHT22;12936;52.006;4.350;2023-03-09T05:45:14;3.40;99.90
24860;DHT22;12936;52.006;4.350;2023-03-09T05:47:46;3.40;99.90
24860;DHT22;12936;52.006;4.350;2023-03-09T05:50:15;3.40;99.90
24860;DHT22;12936;52.006;4.350;2023-03-09T05:52:48;3.30;99.90
24860;DHT22;12936;52.006;4.350;2023-03-09T05:55:16;3.40;99.90
24860;DHT22;12936;52.006;4.350;2023-03-09T05:57:52;3.30;99.90
24860;DHT22;12936;52.006;4.350;2023-03-09T06:00:23;3.40;99.90
24860;DHT22;12936;52.006;4.350;2023-03-09T06:03:07;3.30;99.90
24860;DHT22;12936;52.006;4.350;2023-03-09T06:05:36;3.40;99.90
24860;DHT22;12936;52.006;4.350;2023-03-09T06:08:07;3.30;99.90
24860;DHT22;12936;52.006;4.350;2023-03-09T06:10:37;3.30;99.90
24860;DHT22;12936;52.006;4.350;2023-03-09T06:13:11;3.30;99.90
24860;DHT22;12936;52.006;4.350;2023-03-09T06:15:39;3.30;99.90
24860;DHT22;12936;52.006;4.350;2023-03-09T06:18:11;3.30;99.90
24860;DHT22;12936;52.006;4.350;2023-03-09T06:20:39;3.30;99.90
24860;DHT22;12936;52.006;4.350;2023-03-09T06:23:12;3.20;99.90
24860;DHT22;12936;52.006;4.350;2023-03-09T06:25:41;3.30;99.90
24860;DHT22;12936;52.006;4.350;2023-03-09T06:28:14;3.30;99.90
24860;DHT22;12936;52.006;4.350;2023-03-09T06:30:49;3.30;99.90
24860;DHT22;12936;52.006;4.350;2023-03-09T06:33:18;3.30;99.90
24860;DHT22;12936;52.006;4.350;2023-03-09T06:35:47;3.30;99.90
24860;DHT22;12936;52.006;4.350;2023-03-09T06:38:18;3.40;99.90
24860;DHT22;12936;52.006;4.350;2023-03-09T06:40:47;3.40;99.90
24860;DHT22;12936;52.006;4.350;2023-03-09T06:43:15;3.30;99.90
24860;DHT22;12936;52.006;4.350;2023-03-09T06:45:44;3.40;99.90
24860;DHT22;12936;52.006;4.350;2023-03-09T06:48:13;3.40;99.90
24860;DHT22;12936;52.006;4.350;2023-03-09T06:50:42;3.40;99.90
24860;DHT22;12936;52.006;4.350;2023-03-09T06:53:11;3.50;99.90
24860;DHT22;12936;52.006;4.350;2023-03-09T06:55:40;3.40;99.90
24860;DHT22;12936;52.006;4.350;2023-03-09T06:58:09;3.50;99.90
24860;DHT22;12936;52.006;4.350;2023-03-09T07:00:37;3.40;99.90
24860;DHT22;12936;52.006;4.350;2023-03-09T07:03:14;3.50;99.90
24860;DHT22;12936;52.006;4.350;2023-03-09T07:05:46;3.50;99.90
24860;DHT22;12936;52.006;4.350;2023-03-09T07:08:14;3.50;99.90
24860;DHT22;12936;52.006;4.350;2023-03-09T07:10:43;3.50;99.90
24860;DHT22;12936;52.006;4.350;2023-03-09T07:13:12;3.50;99.90
24860;DHT22;12936;52.006;4.350;2023-03-09T07:15:41;3.50;99.90
24860;DHT22;12936;52.006;4.350;2023-03-09T07:18:10;3.60;99.90
24860;DHT22;12936;52.006;4.350;2023-03-09T07:20:39;3.60;99.90
24860;DHT22;12936;52.006;4.350;2023-03-09T07:23:08;3.60;99.90
24860;DHT22;12936;52.006;4.350;2023-03-09T07:25:37;3.60;99.90
24860;DHT22;12936;52.006;4.350;2023-03-09T07:28:08;3.60;99.90
24860;DHT22;12936;52.006;4.350;2023-03-09T07:30:37;3.60;99.90
24860;DHT22;12936;52.006;4.350;2023-03-09T07:33:05;3.70;99.90
24860;DHT22;12936;52.006;4.350;2023-03-09T07:35:37;3.70;99.90
24860;DHT22;12936;52.006;4.350;2023-03-09T07:38:05;3.70;99.90
24860;DHT22;12936;52.006;4.350;2023-03-09T07:40:33;3.80;99.90
24860;DHT22;12936;52.006;4.350;2023-03-09T07:43:04;3.80;99.90
24860;DHT22;12936;52.006;4.350;2023-03-09T07:45:34;3.80;99.90
24860;DHT22;12936;52.006;4.350;2023-03-09T07:48:02;3.80;99.90
24860;DHT22;12936;52.006;4.350;2023-03-09T07:50:30;3.90;99.90
24860;DHT22;12936;52.006;4.350;2023-03-09T07:52:58;3.90;99.90
24860;DHT22;12936;52.006;4.350;2023-03-09T07:55:27;4.00;99.90
24860;DHT22;12936;52.006;4.350;2023-03-09T07:57:56;4.00;99.90
24860;DHT22;12936;52.006;4.350;2023-03-09T08:00:25;4.00;99.90
24860;DHT22;12936;52.006;4.350;2023-03-09T08:02:56;4.00;99.90
24860;DHT22;12936;52.006;4.350;2023-03-09T08:05:25;4.10;99.90
24860;DHT22;12936;52.006;4.350;2023-03-09T08:07:53;4.00;99.90
24860;DHT22;12936;52.006;4.350;2023-03-09T08:10:21;4.10;99.90
24860;DHT22;12936;52.006;4.350;2023-03-09T08:12:50;4.10;99.90
24860;DHT22;12936;52.006;4.350;2023-03-09T08:15:18;4.20;99.90
24860;DHT22;12936;52.006;4.350;2023-03-09T08:17:47;4.10;99.90
24860;DHT22;12936;52.006;4.350;2023-03-09T08:20:17;4.10;99.90
24860;DHT22;12936;52.006;4.350;2023-03-09T08:22:45;4.10;99.90
24860;DHT22;12936;52.006;4.350;2023-03-09T08:25:13;4.20;99.90
24860;DHT22;12936;52.006;4.350;2023-03-09T08:27:43;4.20;99.90
24860;DHT22;12936;52.006;4.350;2023-03-09T08:30:13;4.30;99.90
24860;DHT22;12936;52.006;4.350;2023-03-09T08:32:42;4.30;99.90
24860;DHT22;12936;52.006;4.350;2023-03-09T08:35:14;4.30;99.90
24860;DHT22;12936;52.006;4.350;2023-03-09T08:37:44;4.40;99.90
24860;DHT22;12936;52.006;4.350;2023-03-09T08:40:14;4.40;99.90
24860;DHT22;12936;52.006;4.350;2023-03-09T08:42:43;4.50;99.90
24860;DHT22;12936;52.006;4.350;2023-03-09T08:45:12;4.50;99.90
24860;DHT22;12936;52.006;4.350;2023-03-09T08:47:40;4.60;99.90
24860;DHT22;12936;52.006;4.350;2023-03-09T08:50:10;4.60;99.90
24860;DHT22;12936;52.006;4.350;2023-03-09T08:52:38;4.60;99.90
24860;DHT22;12936;52.006;4.350;2023-03-09T08:55:10;4.70;99.90
24860;DHT22;12936;52.006;4.350;2023-03-09T08:57:38;4.70;99.90
24860;DHT22;12936;52.006;4.350;2023-03-09T09:00:08;4.70;99.90
24860;DHT22;12936;52.006;4.350;2023-03-09T09:02:37;4.80;99.90
24860;DHT22;12936;52.006;4.350;2023-03-09T09:05:07;4.80;99.90
24860;DHT22;12936;52.006;4.350;2023-03-09T09:07:35;4.80;99.90
24860;DHT22;12936;52.006;4.350;2023-03-09T09:10:04;4.80;99.90
24860;DHT22;12936;52.006;4.350;2023-03-09T09:12:36;4.80;99.90
24860;DHT22;12936;52.006;4.350;2023-03-09T09:15:06;4.80;99.90
24860;DHT22;12936;52.006;4.350;2023-03-09T09:17:36;4.80;99.90
24860;DHT22;12936;52.006;4.350;2023-03-09T09:20:06;4.90;99.90
24860;DHT22;12936;52.006;4.350;2023-03-09T09:22:34;4.90;99.90
24860;DHT22;12936;52.006;4.350;2023-03-09T09:25:05;4.90;99.90
24860;DHT22;12936;52.006;4.350;2023-03-09T09:27:36;5.00;99.90
24860;DHT22;12936;52.006;4.350;2023-03-09T09:30:06;4.90;99.90
24860;DHT22;12936;52.006;4.350;2023-03-09T09:32:36;5.00;99.90
24860;DHT22;12936;52.006;4.350;2023-03-09T09:35:07;5.10;99.90
24860;DHT22;12936;52.006;4.350;2023-03-09T09:37:38;5.00;99.90
24860;DHT22;12936;52.006;4.350;2023-03-09T09:40:11;5.00;99.90
24860;DHT22;12936;52.006;4.350;2023-03-09T09:42:42;5.00;99.90
24860;DHT22;12936;52.006;4.350;2023-03-09T09:45:24;5.00;99.90
24860;DHT22;12936;52.006;4.350;2023-03-09T09:47:57;5.00;99.90
24860;DHT22;12936;52.006;4.350;2023-03-09T09:50:37;5.10;99.90
24860;DHT22;12936;52.006;4.350;2023-03-09T09:53:13;5.10;99.90
24860;DHT22;12936;52.006;4.350;2023-03-09T09:55:44;5.00;99.90
24860;DHT22;12936;52.006;4.350;2023-03-09T09:58:20;5.10;99.90
24860;DHT22;12936;52.006;4.350;2023-03-09T10:00:53;5.10;99.90
24860;DHT22;12936;52.006;4.350;2023-03-09T10:03:24;5.10;99.90
24860;DHT22;12936;52.006;4.350;2023-03-09T10:05:57;5.20;99.90
24860;DHT22;12936;52.006;4.350;2023-03-09T10:08:34;5.20;99.90
24860;DHT22;12936;52.006;4.350;2023-03-09T10:11:10;5.20;99.90
24860;DHT22;12936;52.006;4.350;2023-03-09T10:13:44;5.20;99.90
24860;DHT22;12936;52.006;4.350;2023-03-09T10:16:16;5.20;99.90
24860;DHT22;12936;52.006;4.350;2023-03-09T10:18:49;5.30;99.90
24860;DHT22;12936;52.006;4.350;2023-03-09T10:21:22;5.30;99.90
24860;DHT22;12936;52.006;4.350;2023-03-09T10:23:53;5.30;99.90
24860;DHT22;12936;52.006;4.350;2023-03-09T10:26:32;5.40;99.90
24860;DHT22;12936;52.006;4.350;2023-03-09T10:29:10;5.40;99.90
24860;DHT22;12936;52.006;4.350;2023-03-09T10:31:44;5.40;99.90
24860;DHT22;12936;52.006;4.350;2023-03-09T10:34:16;5.40;99.90
24860;DHT22;12936;52.006;4.350;2023-03-09T10:36:56;5.40;99.90
24860;DHT22;12936;52.006;4.350;2023-03-09T10:39:29;5.40;99.90
24860;DHT22;12936;52.006;4.350;2023-03-09T10:42:10;5.40;99.90
24860;DHT22;12936;52.006;4.350;2023-03-09T10:45:02;5.40;99.90
24860;DHT22;12936;52.006;4.350;2023-03-09T10:47:57;5.40;99.90
24860;DHT22;12936;52.006;4.350;2023-03-09T10:50:30;5.40;99.90
24860;DHT22;12936;52.006;4.350;2023-03-09T10:53:21;5.30;99.90
24860;DHT22;12936;52.006;4.350;2023-03-09T10:55:51;5.40;99.90
24860;DHT22;12936;52.006;4.350;2023-03-09T10:58:32;5.30;99.90
24860;DHT22;12936;52.006;4.350;2023-03-09T11:01:20;5.30;99.90
24860;DHT22;12936;52.006;4.350;2023-03-09T11:03:48;5.30;99.90
24860;DHT22;12936;52.006;4.350;2023-03-09T11:06:29;5.30;99.90
24860;DHT22;12936;52.006;4.350;2023-03-09T11:09:10;5.30;99.90
24860;DHT22;12936;52.006;4.350;2023-03-09T11:11:44;5.20;99.90
24860;DHT22;12936;52.006;4.350;2023-03-09T11:14:22;5.20;99.90
24860;DHT22;12936;52.006;4.350;2023-03-09T11:16:54;5.20;99.90
24860;DHT22;12936;52.006;4.350;2023-03-09T11:19:23;5.20;99.90
24860;DHT22;12936;52.006;4.350;2023-03-09T11:21:58;5.20;99.90
24860;DHT22;12936;52.006;4.350;2023-03-09T11:24:32;5.20;99.90
24860;DHT22;12936;52.006;4.350;2023-03-09T11:27:05;5.30;99.90
24860;DHT22;12936;52.006;4.350;2023-03-09T11:29:38;5.30;99.90
24860;DHT22;12936;52.006;4.350;2023-03-09T11:32:11;5.30;99.90
24860;DHT22;12936;52.006;4.350;2023-03-09T11:34:41;5.30;99.90
24860;DHT22;12936;52.006;4.350;2023-03-09T11:37:16;5.30;99.90
24860;DHT22;12936;52.006;4.350;2023-03-09T11:39:49;5.30;99.90
24860;DHT22;12936;52.006;4.350;2023-03-09T11:42:22;5.40;99.90
24860;DHT22;12936;52.006;4.350;2023-03-09T11:44:51;5.40;99.90
24860;DHT22;12936;52.006;4.350;2023-03-09T11:47:31;5.40;99.90
24860;DHT22;12936;52.006;4.350;2023-03-09T11:50:05;5.50;99.90
24860;DHT22;12936;52.006;4.350;2023-03-09T11:52:40;5.40;99.90
24860;DHT22;12936;52.006;4.350;2023-03-09T11:55:15;5.40;99.90
24860;DHT22;12936;52.006;4.350;2023-03-09T11:57:47;5.50;99.90
24860;DHT22;12936;52.006;4.350;2023-03-09T12:00:19;5.50;99.90
24860;DHT22;12936;52.006;4.350;2023-03-09T12:02:56;5.40;99.90
24860;DHT22;12936;52.006;4.350;2023-03-09T12:05:28;5.40;99.90
24860;DHT22;12936;52.006;4.350;2023-03-09T12:08:02;5.40;99.90
24860;DHT22;12936;52.006;4.350;2023-03-09T12:10:34;5.30;99.90
24860;DHT22;12936;52.006;4.350;2023-03-09T12:13:10;5.30;99.90
24860;DHT22;12936;52.006;4.350;2023-03-09T12:15:43;5.30;99.90
24860;DHT22;12936;52.006;4.350;2023-03-09T12:18:21;5.20;99.90
24860;DHT22;12936;52.006;4.350;2023-03-09T12:20:53;5.20;99.90
24860;DHT22;12936;52.006;4.350;2023-03-09T12:23:43;5.20;99.90
24860;DHT22;12936;52.006;4.350;2023-03-09T12:26:21;5.10;99.90
24860;DHT22;12936;52.006;4.350;2023-03-09T12:29:15;5.10;99.90
24860;DHT22;12936;52.006;4.350;2023-03-09T12:31:44;5.10;99.90
24860;DHT22;12936;52.006;4.350;2023-03-09T12:34:27;5.10;99.90
24860;DHT22;12936;52.006;4.350;2023-03-09T12:37:40;5.00;99.90
24860;DHT22;12936;52.006;4.350;2023-03-09T12:40:20;5.00;99.90
24860;DHT22;12936;52.006;4.350;2023-03-09T12:42:52;5.10;99.90
24860;DHT22;12936;52.006;4.350;2023-03-09T12:45:27;5.00;99.90
24860;DHT22;12936;52.006;4.350;2023-03-09T12:47:58;5.00;99.90
24860;DHT22;12936;52.006;4.350;2023-03-09T12:50:38;5.00;99.90
24860;DHT22;12936;52.006;4.350;2023-03-09T12:53:17;5.00;99.90
24860;DHT22;12936;52.006;4.350;2023-03-09T12:55:48;5.00;99.90
24860;DHT22;12936;52.006;4.350;2023-03-09T12:58:41;5.10;99.90
24860;DHT22;12936;52.006;4.350;2023-03-09T13:01:12;5.00;99.90
24860;DHT22;12936;52.006;4.350;2023-03-09T13:04:10;5.10;99.90
24860;DHT22;12936;52.006;4.350;2023-03-09T13:06:41;5.10;99.90
24860;DHT22;12936;52.006;4.350;2023-03-09T13:09:18;5.10;99.90
24860;DHT22;12936;52.006;4.350;2023-03-09T13:11:48;5.20;99.90
24860;DHT22;12936;52.006;4.350;2023-03-09T13:17:37;5.00;99.90
24860;DHT22;12936;52.006;4.350;2023-03-09T13:20:18;5.00;99.90
24860;DHT22;12936;52.006;4.350;2023-03-09T13:22:51;4.90;99.90
24860;DHT22;12936;52.006;4.350;2023-03-09T13:25:43;4.90;99.90
24860;DHT22;12936;52.006;4.350;2023-03-09T13:28:37;4.90;99.90
24860;DHT22;12936;52.006;4.350;2023-03-09T13:31:17;4.80;99.90
24860;DHT22;12936;52.006;4.350;2023-03-09T13:33:46;4.80;99.90
24860;DHT22;12936;52.006;4.350;2023-03-09T13:36:17;4.80;99.90
24860;DHT22;12936;52.006;4.350;2023-03-09T13:38:51;4.80;99.90
24860;DHT22;12936;52.006;4.350;2023-03-09T13:41:23;4.80;99.90
24860;DHT22;12936;52.006;4.350;2023-03-09T13:43:53;4.80;99.90
24860;DHT22;12936;52.006;4.350;2023-03-09T13:46:27;4.80;99.90
24860;DHT22;12936;52.006;4.350;2023-03-09T13:48:58;4.80;99.90
24860;DHT22;12936;52.006;4.350;2023-03-09T13:51:44;4.90;99.90
24860;DHT22;12936;52.006;4.350;2023-03-09T13:54:31;4.90;99.90
24860;DHT22;12936;52.006;4.350;2023-03-09T13:57:03;4.90;99.90
24860;DHT22;12936;52.006;4.350;2023-03-09T13:59:43;5.00;99.90
24860;DHT22;12936;52.006;4.350;2023-03-09T14:02:13;5.00;99.90
24860;DHT22;12936;52.006;4.350;2023-03-09T14:04:45;5.00;99.90
24860;DHT22;12936;52.006;4.350;2023-03-09T14:07:16;5.10;99.90
24860;DHT22;12936;52.006;4.350;2023-03-09T14:09:53;5.00;99.90
24860;DHT22;12936;52.006;4.350;2023-03-09T14:12:26;5.00;99.90
24860;DHT22;12936;52.006;4.350;2023-03-09T14:14:57;5.10;99.90
24860;DHT22;12936;52.006;4.350;2023-03-09T14:17:26;5.20;99.90
24860;DHT22;12936;52.006;4.350;2023-03-09T14:19:55;5.20;99.90
24860;DHT22;12936;52.006;4.350;2023-03-09T14:22:27;5.20;99.90
24860;DHT22;12936;52.006;4.350;2023-03-09T14:24:57;5.20;99.90
24860;DHT22;12936;52.006;4.350;2023-03-09T14:27:30;5.20;99.90
24860;DHT22;12936;52.006;4.350;2023-03-09T14:30:23;5.20;99.90
24860;DHT22;12936;52.006;4.350;2023-03-09T14:32:57;5.20;99.90
24860;DHT22;12936;52.006;4.350;2023-03-09T14:35:31;5.20;99.90
24860;DHT22;12936;52.006;4.350;2023-03-09T14:37:59;5.20;99.90
24860;DHT22;12936;52.006;4.350;2023-03-09T14:40:31;5.20;99.90
24860;DHT22;12936;52.006;4.350;2023-03-09T14:43:38;5.20;99.90
24860;DHT22;12936;52.006;4.350;2023-03-09T14:46:08;5.10;99.90
24860;DHT22;12936;52.006;4.350;2023-03-09T14:48:37;5.10;99.90
24860;DHT22;12936;52.006;4.350;2023-03-09T14:51:11;5.10;99.90
24860;DHT22;12936;52.006;4.350;2023-03-09T14:53:52;5.10;99.90
24860;DHT22;12936;52.006;4.350;2023-03-09T14:56:23;5.10;99.90
24860;DHT22;12936;52.006;4.350;2023-03-09T14:58:54;5.00;99.90
24860;DHT22;12936;52.006;4.350;2023-03-09T15:01:29;5.00;99.90
24860;DHT22;12936;52.006;4.350;2023-03-09T15:03:58;5.00;99.90
24860;DHT22;12936;52.006;4.350;2023-03-09T15:06:26;5.00;99.90
24860;DHT22;12936;52.006;4.350;2023-03-09T15:08:54;5.10;99.90
24860;DHT22;12936;52.006;4.350;2023-03-09T15:11:29;5.00;99.90
24860;DHT22;12936;52.006;4.350;2023-03-09T15:13:59;5.00;99.90
24860;DHT22;12936;52.006;4.350;2023-03-09T15:16:30;5.00;99.90
24860;DHT22;12936;52.006;4.350;2023-03-09T15:18:59;5.00;99.90
24860;DHT22;12936;52.006;4.350;2023-03-09T15:21:28;4.90;99.90
24860;DHT22;12936;52.006;4.350;2023-03-09T15:23:56;4.90;99.90
24860;DHT22;12936;52.006;4.350;2023-03-09T15:26:28;4.90;99.90
24860;DHT22;12936;52.006;4.350;2023-03-09T15:28:57;4.90;99.90
24860;DHT22;12936;52.006;4.350;2023-03-09T15:31:25;4.90;99.90
24860;DHT22;12936;52.006;4.350;2023-03-09T15:33:53;4.90;99.90
24860;DHT22;12936;52.006;4.350;2023-03-09T15:36:24;4.90;99.90
24860;DHT22;12936;52.006;4.350;2023-03-09T15:38:52;4.90;99.90
24860;DHT22;12936;52.006;4.350;2023-03-09T15:41:20;4.80;99.90
24860;DHT22;12936;52.006;4.350;2023-03-09T15:43:50;4.80;99.90
24860;DHT22;12936;52.006;4.350;2023-03-09T15:46:19;4.80;99.90
24860;DHT22;12936;52.006;4.350;2023-03-09T15:48:47;4.80;99.90
24860;DHT22;12936;52.006;4.350;2023-03-09T15:51:17;4.80;99.90
24860;DHT22;12936;52.006;4.350;2023-03-09T15:53:46;4.80;99.90
24860;DHT22;12936;52.006;4.350;2023-03-09T15:56:15;4.80;99.90
24860;DHT22;12936;52.006;4.350;2023-03-09T15:58:43;4.80;99.90
24860;DHT22;12936;52.006;4.350;2023-03-09T16:01:16;4.80;99.90
24860;DHT22;12936;52.006;4.350;2023-03-09T16:03:49;4.80;99.90
24860;DHT22;12936;52.006;4.350;2023-03-09T16:06:18;4.80;99.90
24860;DHT22;12936;52.006;4.350;2023-03-09T16:08:48;4.80;99.90
24860;DHT22;12936;52.006;4.350;2023-03-09T16:11:16;4.80;99.90
24860;DHT22;12936;52.006;4.350;2023-03-09T16:13:46;4.90;99.90
24860;DHT22;12936;52.006;4.350;2023-03-09T16:20:06;4.80;99.90
24860;DHT22;12936;52.006;4.350;2023-03-09T16:22:46;4.70;99.90
24860;DHT22;12936;52.006;4.350;2023-03-09T16:25:17;4.70;99.90
24860;DHT22;12936;52.006;4.350;2023-03-09T16:27:46;4.70;99.90
24860;DHT22;12936;52.006;4.350;2023-03-09T16:30:18;4.70;99.90
24860;DHT22;12936;52.006;4.350;2023-03-09T16:32:48;4.70;99.90
24860;DHT22;12936;52.006;4.350;2023-03-09T16:35:19;4.80;99.90
24860;DHT22;12936;52.006;4.350;2023-03-09T16:37:48;4.80;99.90
24860;DHT22;12936;52.006;4.350;2023-03-09T16:40:19;4.70;99.90
24860;DHT22;12936;52.006;4.350;2023-03-09T16:42:47;4.70;99.90